Список аэропортов
Фактическая погода:

25 июня, 11:30
Температура: +12°C (+9.8*)
Ветер: сев.-восточный 6 м/с
Давление: *746 мм
разорв. обл.
240 м
слаб. дождь
Время (МСК)Темп. СВетерВлажностьДавлениеОблачностьОсадки
09:00+12СВ, 4 м/с94%998 гПаоблачнодождь
10:00+12СВ, 4 м/с94%997 гПаоблачнодождь
11:00+12СВ, 4 м/с95%997 гПаоблачнодождь
12:00+12СВ, 4 м/с95%997 гПаоблачнодождь
13:00+12С, 4 м/с95%997 гПаоблачнодождь
14:00+12С, 3 м/с96%997 гПаоблачнодождь
15:00+12С, 3 м/с96%997 гПаоблачнодождь
16:00+12С, 3 м/с96%997 гПаоблачнодождь
17:00+12СЗ, 4 м/с95%998 гПаоблачносл. дождь
18:00+12СЗ, 4 м/с94%998 гПаоблачносл. дождь
19:00+12СЗ, 4 м/с95%999 гПаоблачносл. дождь
20:00+12СЗ, 4 м/с95%1000 гПаоблачнодождь
21:00+12СЗ, 4 м/с95%1001 гПаоблачносл. дождь
22:00+12З, 4 м/с96%1002 гПаоблачнодождь
23:00+12З, 4 м/с94%1002 гПаоблачносл. дождь
26 июня
00:00+11З, 4 м/с93%1002 гПаоблачно
01:00+10З, 4 м/с94%1003 гПаоблачно
02:00+9З, 3 м/с95%1004 гПамалооблачно
03:00+9З, 3 м/с95%1004 гПамалооблачно
04:00+9З, 3 м/с95%1004 гПамалооблачно
05:00+10З, 3 м/с92%1005 гПамалооблачно
06:00+12З, 3 м/с81%1005 гПамалооблачно
07:00+14З, 3 м/с65%1006 гПамалооблачно
08:00+16СЗ, 4 м/с51%1006 гПамалооблачно
09:00+17СЗ, 4 м/с46%1006 гПаясно
10:00+18СЗ, 4 м/с44%1006 гПаясно
11:00+19З, 5 м/с38%1006 гПаясно
12:00+20З, 5 м/с36%1006 гПаясно
13:00+21З, 4 м/с36%1006 гПамалооблачно
14:00+22З, 4 м/с36%1006 гПамалооблачно
15:00+21З, 4 м/с38%1006 гПас прояснениями
16:00+21З, 4 м/с40%1006 гПас прояснениями
17:00+20З, 4 м/с43%1006 гПамалооблачно
18:00+19З, 3 м/с49%1007 гПамалооблачно
19:00+18ЮЗ, 2 м/с58%1007 гПаясно
20:00+15Ю, 1 м/с75%1007 гПаясно
21:00+13Ю, 1 м/с88%1007 гПас прояснениями
22:00+12Ю, 1 м/с95%1007 гПаоблачно
23:00+12Ю, 1 м/с95%1006 гПамалооблачно
27 июня
00:00+12ЮЗ, 2 м/с96%1006 гПаоблачно
01:00+13ЮЗ, 2 м/с98%1006 гПамалооблачно
02:00+12ЮЗ, 2 м/с99%1006 гПас прояснениями
03:00+12Ю, 2 м/с99%1006 гПамалооблачно
04:00+13Ю, 1 м/с99%1006 гПаоблачно
05:00+15Ю, 2 м/с98%1005 гПаоблачносл. дождь
06:00+17ЮЗ, 3 м/с93%1005 гПаоблачно
07:00+19ЮЗ, 3 м/с76%1005 гПаоблачно
08:00+21ЮЗ, 4 м/с65%1004 гПас прояснениями
09:00+21ЮЗ, 4 м/с72%1004 гПаоблачносл. дождь